Time;durP1;ratioP1;P1;durP2;ratioP2;P2;SDS_P1;SDS_P2;PMS_P1;PMS_P2;Temp;Humidity;BMP_temperature;BMP_pressure;BME280_temperature;BME280_humidity;BME280_pressure;Samples;Min_cycle;Max_cycle;Signal;HPM_P1;HPM_P2
2021/10/07 00:00:33;;;;;;;1.88;0.70;;;;;;;5.29;89.61;91354.19;4979124;28;20464;-90
2021/10/07 00:02:58;;;;;;;1.60;0.55;;;;;;;5.25;89.67;91353.22;5012169;28;20062;-90
2021/10/07 00:05:23;;;;;;;2.15;0.60;;;;;;;5.22;89.34;91348.63;4995971;28;20026;-91
2021/10/07 00:07:49;;;;;;;0.77;0.70;;;;;;;5.19;89.17;91351.78;4995850;28;20025;-90
2021/10/07 00:10:14;;;;;;;0.90;0.47;;;;;;;5.18;89.71;91361.34;4998316;28;20104;-90
2021/10/07 00:12:40;;;;;;;1.23;0.60;;;;;;;5.15;89.46;91359.34;4999671;28;20450;-90
2021/10/07 00:15:06;;;;;;;3.70;0.50;;;;;;;5.10;89.93;91362.00;4999954;28;20021;-90
2021/10/07 00:17:31;;;;;;;1.45;0.70;;;;;;;5.01;90.44;91361.88;4999852;28;20029;-90
2021/10/07 00:19:57;;;;;;;2.08;0.80;;;;;;;5.01;90.38;91355.94;4999773;28;20018;-90
2021/10/07 00:22:22;;;;;;;2.65;0.60;;;;;;;5.10;90.00;91356.84;5015806;28;20072;-91
2021/10/07 00:24:48;;;;;;;2.15;0.70;;;;;;;5.15;90.29;91353.41;4999390;28;20030;-90
2021/10/07 00:27:13;;;;;;;2.25;0.90;;;;;;;5.16;90.05;91365.25;5016229;28;20036;-90
2021/10/07 00:29:50;;;;;;;4.65;0.80;;;;;;;5.21;89.41;91347.88;4999363;28;20025;-90
2021/10/07 00:32:19;;;;;;;1.98;0.70;;;;;;;5.10;90.00;91354.25;5000715;28;20030;-90
2021/10/07 00:40:04;;;;;;;5.05;0.50;;;;;;;5.01;90.58;91368.84;5100833;23;20055;-88
2021/10/07 00:42:30;;;;;;;1.83;0.60;;;;;;;4.98;90.74;91359.88;5057374;28;20047;-88
2021/10/07 00:44:55;;;;;;;3.78;1.10;;;;;;;4.99;90.61;91363.22;5058181;28;20722;-88
2021/10/07 00:47:21;;;;;;;3.53;1.55;;;;;;;4.96;90.87;91361.19;5041585;28;20074;-90
2021/10/07 00:49:46;;;;;;;2.70;1.80;;;;;;;4.94;90.88;91364.06;5038534;28;20079;-89
2021/10/07 00:52:14;;;;;;;4.25;1.55;;;;;;;4.93;91.00;91357.34;5056871;28;20027;-90
2021/10/07 00:54:40;;;;;;;5.40;1.88;;;;;;;4.94;91.07;91358.13;5063912;28;20033;-91
2021/10/07 00:57:06;;;;;;;7.20;1.80;;;;;;;5.01;91.43;91366.28;5047519;28;20051;-91
2021/10/07 00:59:33;;;;;;;1.98;1.17;;;;;;;5.04;91.71;91365.72;5039419;28;20036;-90
2021/10/07 01:02:03;;;;;;;1.83;1.13;;;;;;;5.25;90.96;91368.75;5021676;28;20024;-90
2021/10/07 01:04:29;;;;;;;5.32;2.47;;;;;;;5.34;89.99;91361.13;5038517;28;20025;-91
2021/10/07 01:06:54;;;;;;;4.72;2.90;;;;;;;5.18;90.12;91369.09;5004701;28;20079;-90
2021/10/07 01:09:20;;;;;;;7.60;4.10;;;;;;;5.11;90.48;91376.44;5037926;28;20098;-90
2021/10/07 01:11:45;;;;;;;8.50;3.60;;;;;;;5.07;90.82;91370.31;5037769;28;20490;-91
2021/10/07 01:14:10;;;;;;;6.53;3.60;;;;;;;5.01;91.02;91372.19;5021358;28;20391;-91
2021/10/07 01:16:36;;;;;;;2.85;1.70;;;;;;;4.99;90.84;91361.41;5021519;28;20386;-89
2021/10/07 01:19:01;;;;;;;4.05;1.77;;;;;;;5.10;91.07;91364.59;5037820;28;20379;-90
2021/10/07 01:21:27;;;;;;;3.65;1.73;;;;;;;5.21;89.92;91373.72;5037389;28;20024;-90
2021/10/07 01:23:52;;;;;;;3.78;1.90;;;;;;;5.18;90.44;91373.50;4990528;28;20034;-90
2021/10/07 01:26:19;;;;;;;5.30;1.80;;;;;;;5.20;90.71;91364.44;5001343;28;20368;-90
2021/10/07 01:28:46;;;;;;;3.28;1.65;;;;;;;5.21;90.99;91367.78;5034514;28;20082;-90
2021/10/07 01:31:11;;;;;;;3.08;1.70;;;;;;;5.25;90.74;91364.34;5017306;28;20031;-89
2021/10/07 01:33:37;;;;;;;2.88;1.40;;;;;;;5.20;90.92;91366.25;5025466;28;20443;-90
2021/10/07 01:36:02;;;;;;;2.75;1.58;;;;;;;5.17;91.30;91366.81;5017262;28;20029;-90
2021/10/07 01:38:28;;;;;;;3.85;1.38;;;;;;;5.18;91.41;91369.09;5017011;28;20029;-91
2021/10/07 01:40:54;;;;;;;3.00;1.15;;;;;;;5.13;91.04;91355.50;5050327;28;20017;-89
2021/10/07 01:43:19;;;;;;;3.28;1.23;;;;;;;5.08;90.74;91358.94;5029015;28;20080;-90
2021/10/07 01:45:48;;;;;;;2.92;1.05;;;;;;;5.18;91.37;91369.09;5034593;28;20032;-89
2021/10/07 01:48:14;;;;;;;1.65;0.93;;;;;;;5.18;91.30;91363.94;5053367;28;20033;-90
2021/10/07 01:50:39;;;;;;;3.17;1.23;;;;;;;5.27;90.94;91367.41;5052980;28;20028;-88
2021/10/07 01:53:05;;;;;;;1.73;0.90;;;;;;;5.26;90.63;91365.88;5053562;28;20036;-89
2021/10/07 01:55:30;;;;;;;1.98;1.35;;;;;;;5.36;90.19;91367.50;5036651;28;20391;-90
2021/10/07 01:57:56;;;;;;;1.70;1.08;;;;;;;5.30;90.60;91373.03;5020042;28;20070;-90
2021/10/07 02:00:21;;;;;;;2.78;1.00;;;;;;;5.25;90.67;91371.31;5053347;28;20017;-90
2021/10/07 02:02:46;;;;;;;2.03;0.80;;;;;;;5.29;90.32;91367.13;5052701;28;20025;-90
2021/10/07 02:05:12;;;;;;;4.80;0.98;;;;;;;5.25;90.63;91369.50;5036539;28;20025;-91
2021/10/07 02:07:37;;;;;;;2.17;0.90;;;;;;;5.37;90.40;91366.47;5032730;28;20045;-90
2021/10/07 02:10:05;;;;;;;2.30;0.73;;;;;;;5.38;90.51;91362.84;5032835;28;20450;-89
2021/10/07 02:12:31;;;;;;;3.10;0.93;;;;;;;5.40;90.50;91365.88;5049064;28;20029;-90
2021/10/07 02:14:56;;;;;;;1.92;0.80;;;;;;;5.39;90.67;91363.59;5050058;28;20099;-90
2021/10/07 02:17:21;;;;;;;5.18;1.50;;;;;;;5.27;90.79;91362.25;5016162;28;20422;-90
2021/10/07 02:19:47;;;;;;;5.22;1.60;;;;;;;5.22;90.91;91358.97;5036588;28;20445;-90
2021/10/07 02:22:12;;;;;;;4.80;1.38;;;;;;;5.20;91.30;91364.44;5052511;28;20402;-90
2021/10/07 02:24:38;;;;;;;3.33;1.30;;;;;;;5.23;91.32;91360.53;5053081;28;20028;-90
2021/10/07 02:27:04;;;;;;;4.25;1.60;;;;;;;5.22;91.13;91370.06;5012338;28;20026;-90
2021/10/07 02:29:29;;;;;;;4.47;1.30;;;;;;;5.11;91.38;91355.78;5015645;28;20025;-90
2021/10/07 02:31:55;;;;;;;2.95;1.30;;;;;;;5.13;91.53;91360.69;5015933;28;20017;-89
2021/10/07 02:34:20;;;;;;;1.95;1.05;;;;;;;5.16;91.36;91360.88;5032877;28;20037;-91
2021/10/07 02:36:45;;;;;;;1.85;1.08;;;;;;;5.19;91.38;91365.47;5035876;28;20025;-89
2021/10/07 02:39:11;;;;;;;3.38;1.50;;;;;;;5.22;91.52;91359.72;5018602;28;20467;-89
2021/10/07 02:41:36;;;;;;;2.97;1.00;;;;;;;5.27;91.35;91366.66;5036133;28;20025;-90
2021/10/07 02:44:02;;;;;;;2.38;1.15;;;;;;;5.28;91.20;91365.59;5019166;28;20028;-89
2021/10/07 02:46:27;;;;;;;3.53;1.00;;;;;;;5.27;91.72;91358.91;5035844;28;20108;-91
2021/10/07 02:48:53;;;;;;;1.75;0.70;;;;;;;5.27;91.15;91366.66;5035587;28;20029;-89
2021/10/07 02:51:18;;;;;;;4.43;1.10;;;;;;;5.30;91.43;91365.28;5048806;28;20028;-90
2021/10/07 02:53:43;;;;;;;2.97;1.60;;;;;;;5.28;91.49;91361.19;5048910;28;20434;-91
2021/10/07 02:56:09;;;;;;;7.03;2.13;;;;;;;5.24;91.46;91360.22;5035395;28;20017;-91
2021/10/07 02:58:36;;;;;;;3.83;1.83;;;;;;;5.16;92.03;91360.09;5052052;28;20442;-90
2021/10/07 03:01:01;;;;;;;6.28;2.20;;;;;;;5.22;92.19;91366.72;5035558;28;20103;-91
2021/10/07 03:03:27;;;;;;;4.95;1.65;;;;;;;5.19;92.35;91355.13;5048584;28;20044;-90
2021/10/07 03:05:52;;;;;;;3.90;1.77;;;;;;;5.20;92.00;91356.69;5015808;28;20103;-91
2021/10/07 03:08:18;;;;;;;3.13;1.65;;;;;;;5.27;91.75;91361.47;5051821;28;20041;-90
2021/10/07 03:10:43;;;;;;;3.08;1.20;;;;;;;5.35;91.15;91365.22;5051854;28;20102;-90
2021/10/07 03:13:09;;;;;;;3.80;1.30;;;;;;;5.42;90.93;91363.03;5031340;28;20025;-89
2021/10/07 03:15:34;;;;;;;4.05;1.73;;;;;;;5.41;91.25;91366.69;5048972;28;20033;-90
2021/10/07 03:17:59;;;;;;;4.82;1.90;;;;;;;5.41;91.26;91371.84;5031888;28;20045;-90
2021/10/07 03:20:25;;;;;;;4.85;1.80;;;;;;;5.41;91.32;91371.84;5015586;28;20029;-91
2021/10/07 03:22:50;;;;;;;2.13;1.40;;;;;;;5.45;90.97;91367.63;5016179;28;20029;-90
2021/10/07 03:25:16;;;;;;;4.07;1.55;;;;;;;5.36;91.40;91375.28;5015169;28;20033;-89
2021/10/07 03:27:41;;;;;;;2.88;1.00;;;;;;;5.26;92.15;91376.22;5018976;28;20027;-90
2021/10/07 03:30:07;;;;;;;2.67;1.30;;;;;;;5.31;92.04;91375.38;5018724;28;20083;-88
2021/10/07 03:32:33;;;;;;;5.53;2.38;;;;;;;5.40;92.05;91373.66;5051380;28;20439;-90
2021/10/07 03:34:58;;;;;;;3.85;1.58;;;;;;;5.40;92.10;91373.66;5018435;28;20055;-89
2021/10/07 03:37:23;;;;;;;2.55;1.50;;;;;;;5.48;91.70;91373.00;5034886;28;20406;-89
2021/10/07 03:39:49;;;;;;;3.45;1.75;;;;;;;5.51;91.53;91380.19;5051592;28;20397;-90
2021/10/07 03:42:14;;;;;;;3.15;1.38;;;;;;;5.51;91.09;91384.56;5018669;28;20017;-90
2021/10/07 03:44:41;;;;;;;2.20;1.10;;;;;;;5.47;91.13;91373.28;5032086;28;20557;-90
2021/10/07 03:47:07;;;;;;;1.70;1.02;;;;;;;5.42;91.23;91383.72;5031889;28;20100;-88
2021/10/07 03:49:32;;;;;;;5.43;1.40;;;;;;;5.42;91.53;91389.66;5014935;28;20036;-90
2021/10/07 03:51:57;;;;;;;2.05;1.08;;;;;;;5.44;91.55;91381.59;5031810;28;20502;-90
2021/10/07 03:54:23;;;;;;;2.15;0.73;;;;;;;5.48;91.21;91385.16;5029967;28;20025;-89
2021/10/07 03:56:48;;;;;;;1.05;0.80;;;;;;;5.53;90.98;91390.25;5034813;28;20028;-90
2021/10/07 03:59:14;;;;;;;1.20;0.70;;;;;;;5.57;90.99;91393.03;5018007;28;20021;-89
2021/10/07 04:01:39;;;;;;;6.15;0.82;;;;;;;5.56;90.52;91392.25;5008238;28;20032;-90
2021/10/07 04:04:05;;;;;;;1.27;0.70;;;;;;;5.49;91.15;91395.22;4998480;28;20028;-90
2021/10/07 04:06:30;;;;;;;3.63;0.85;;;;;;;5.50;91.20;91390.81;5022658;28;20514;-91
2021/10/07 04:08:55;;;;;;;3.85;1.10;;;;;;;5.46;91.51;91398.38;5034496;28;20032;-89
2021/10/07 04:11:21;;;;;;;1.88;1.00;;;;;;;5.37;91.77;91392.34;5033795;28;20490;-90
2021/10/07 04:13:47;;;;;;;3.15;1.00;;;;;;;5.41;91.73;91402.88;5035014;28;20434;-90
2021/10/07 04:16:13;;;;;;;1.70;1.05;;;;;;;5.41;91.53;91398.47;5030400;28;20032;-90
2021/10/07 04:18:40;;;;;;;4.20;0.82;;;;;;;5.50;91.37;91406.31;4998750;28;20506;-90
2021/10/07 04:21:06;;;;;;;3.05;0.82;;;;;;;5.47;91.14;91401.72;5018150;28;20017;-90
2021/10/07 04:23:31;;;;;;;2.80;1.05;;;;;;;5.44;90.99;91407.44;5034926;28;20027;-90
2021/10/07 04:25:56;;;;;;;2.10;0.90;;;;;;;5.41;91.05;91403.63;5033419;28;20025;-89
2021/10/07 04:28:22;;;;;;;4.47;1.10;;;;;;;5.50;91.07;91408.91;5015161;28;20479;-90
2021/10/07 04:30:47;;;;;;;2.65;0.90;;;;;;;5.52;90.67;91399.06;5031570;28;20479;-90
2021/10/07 04:33:13;;;;;;;5.05;1.00;;;;;;;5.56;90.38;91407.00;5034283;28;20398;-90
2021/10/07 04:35:39;;;;;;;4.18;1.15;;;;;;;5.58;90.76;91418.56;5051464;28;20025;-89
2021/10/07 04:38:05;;;;;;;1.63;0.90;;;;;;;5.56;91.08;91417.34;5034706;28;20091;-90
2021/10/07 04:40:30;;;;;;;1.83;0.80;;;;;;;5.42;91.45;91414.72;5034525;28;20025;-91
2021/10/07 04:42:56;;;;;;;1.67;0.80;;;;;;;5.41;91.55;91416.56;5017544;28;20044;-90
2021/10/07 04:45:21;;;;;;;2.03;0.98;;;;;;;5.38;91.46;91418.94;5034747;28;20029;-90
2021/10/07 04:47:47;;;;;;;2.42;0.60;;;;;;;5.47;91.36;91422.41;5050548;28;20033;-89
2021/10/07 04:50:12;;;;;;;2.75;0.80;;;;;;;5.46;90.97;91415.69;5047552;28;20041;-93
2021/10/07 04:52:38;;;;;;;2.85;1.23;;;;;;;5.53;91.81;91423.84;5043490;28;20021;-92
2021/10/07 04:55:04;;;;;;;2.30;1.00;;;;;;;5.48;91.57;91424.72;5061428;28;20005;-90
2021/10/07 04:57:29;;;;;;;2.60;1.00;;;;;;;5.44;92.01;91420.38;5056311;28;20021;-90
2021/10/07 04:59:55;;;;;;;2.80;1.00;;;;;;;5.34;91.93;91418.75;5043131;28;20356;-91
2021/10/07 05:02:21;;;;;;;1.70;1.02;;;;;;;5.35;92.20;91416.91;5038282;28;20401;-90
2021/10/07 05:04:46;;;;;;;1.25;0.95;;;;;;;5.35;92.21;91429.84;5021179;28;20025;-90
2021/10/07 05:07:12;;;;;;;1.75;1.00;;;;;;;5.34;91.88;91421.31;5037763;28;20029;-91
2021/10/07 05:09:37;;;;;;;2.10;1.23;;;;;;;5.40;91.62;91427.16;5053926;28;20032;-89
2021/10/07 05:12:03;;;;;;;3.85;1.13;;;;;;;5.50;91.19;91429.59;5054236;28;20544;-92
2021/10/07 05:14:28;;;;;;;2.20;1.02;;;;;;;5.44;91.21;91426.34;5035288;28;20056;-89
2021/10/07 05:16:54;;;;;;;1.70;1.15;;;;;;;5.40;91.19;91427.16;5018147;28;20415;-89
2021/10/07 05:19:19;;;;;;;1.27;0.75;;;;;;;5.43;91.19;91431.78;5033893;28;20017;-90
2021/10/07 05:21:44;;;;;;;1.27;0.90;;;;;;;5.45;90.64;91437.44;5053055;28;20103;-90
2021/10/07 05:24:10;;;;;;;1.45;1.15;;;;;;;5.43;91.19;91436.94;5054437;28;20077;-90
2021/10/07 05:26:35;;;;;;;2.72;1.10;;;;;;;5.37;91.51;91423.34;5019149;28;20043;-89
2021/10/07 05:29:01;;;;;;;3.05;1.45;;;;;;;5.40;91.40;91425.34;5018221;28;20079;-91
2021/10/07 05:31:26;;;;;;;3.72;1.90;;;;;;;5.46;90.58;91433.78;5030981;28;20029;-90
2021/10/07 05:33:52;;;;;;;2.28;1.10;;;;;;;5.41;90.51;91421.72;5018317;28;20022;-90
2021/10/07 05:36:17;;;;;;;1.80;1.00;;;;;;;5.34;90.81;91423.16;5032325;28;20094;-90
2021/10/07 05:38:42;;;;;;;1.98;0.82;;;;;;;5.34;90.30;91417.97;5020983;28;20040;-89
2021/10/07 05:41:08;;;;;;;4.50;0.70;;;;;;;5.30;90.36;91422.94;5024365;28;20022;-89
2021/10/07 05:43:33;;;;;;;2.72;0.90;;;;;;;5.24;90.14;91424.81;5017738;28;20028;-90
2021/10/07 05:45:59;;;;;;;1.70;0.80;;;;;;;5.14;90.37;91424.97;5028882;28;20032;-90
2021/10/07 05:48:25;;;;;;;2.20;0.85;;;;;;;5.18;89.87;91431.13;5013474;28;20079;-90
2021/10/07 05:50:50;;;;;;;1.45;0.90;;;;;;;5.09;89.59;91421.69;5033636;28;20509;-89
2021/10/07 05:53:15;;;;;;;0.98;0.70;;;;;;;5.04;89.41;91427.72;5023167;28;20638;-90
2021/10/07 05:55:41;;;;;;;2.35;0.90;;;;;;;4.94;88.94;91425.28;5036805;28;20028;-90
2021/10/07 05:58:06;;;;;;;7.35;1.30;;;;;;;4.88;89.28;91434.16;5016237;28;20021;-90
2021/10/07 06:00:32;;;;;;;3.20;1.38;;;;;;;4.75;90.20;91428.63;5017841;28;20021;-90
2021/10/07 06:02:57;;;;;;;11.25;2.33;;;;;;;4.67;90.28;91436.25;5033888;28;20025;-90
2021/10/07 06:05:23;;;;;;;4.25;2.10;;;;;;;4.68;90.47;91433.38;5018234;28;20025;-91
2021/10/07 06:07:48;;;;;;;4.90;2.30;;;;;;;4.77;89.33;91438.69;5017587;28;20040;-86
2021/10/07 06:10:14;;;;;;;4.70;2.22;;;;;;;4.60;89.84;91441.75;5021256;28;20084;-90
2021/10/07 06:12:43;;;;;;;2.67;1.90;;;;;;;4.54;89.88;91442.88;5055011;28;20024;-90
2021/10/07 06:15:09;;;;;;;4.63;1.90;;;;;;;4.53;89.97;91446.50;5055562;28;20024;-89
2021/10/07 06:17:34;;;;;;;3.70;1.77;;;;;;;4.45;90.15;91449.69;5022586;28;20024;-89
2021/10/07 06:20:16;;;;;;;4.90;1.60;;;;;;;4.49;90.08;91455.84;5036656;28;20021;-89
2021/10/07 06:22:41;;;;;;;2.58;1.80;;;;;;;4.57;89.92;91455.22;5031333;28;20031;-89
2021/10/07 06:25:07;;;;;;;4.85;1.98;;;;;;;4.69;89.78;91450.41;5022307;28;20021;-88
2021/10/07 06:27:32;;;;;;;4.32;2.50;;;;;;;4.85;89.77;91452.81;5052227;28;20047;-90
2021/10/07 06:29:58;;;;;;;10.20;1.85;;;;;;;4.97;89.77;91456.47;5017567;28;20526;-89
2021/10/07 06:32:23;;;;;;;17.10;2.90;;;;;;;5.26;89.22;91464.09;5016381;28;20028;-89
2021/10/07 06:34:48;;;;;;;4.78;3.05;;;;;;;5.43;89.66;91460.19;5036635;28;20079;-89
2021/10/07 06:37:14;;;;;;;5.78;3.28;;;;;;;5.54;90.12;91466.75;5006664;28;20024;-90
2021/10/07 06:39:39;;;;;;;13.05;3.28;;;;;;;5.54;89.92;91464.16;5053582;23;20013;-88
2021/10/07 06:42:05;;;;;;;6.65;2.95;;;;;;;5.39;90.49;91464.41;5027631;28;20518;-87
2021/10/07 06:44:31;;;;;;;4.22;2.63;;;;;;;5.53;90.55;91454.88;5019235;28;20108;-89
2021/10/07 06:46:56;;;;;;;5.03;2.70;;;;;;;5.49;90.57;91459.06;5019335;28;20487;-89
2021/10/07 06:49:22;;;;;;;5.82;2.90;;;;;;;5.48;92.24;91455.72;5002607;28;20032;-89
2021/10/07 06:51:47;;;;;;;3.40;2.70;;;;;;;5.83;91.25;91455.41;5002988;28;20047;-89
2021/10/07 06:54:13;;;;;;;5.75;2.33;;;;;;;5.81;90.89;91462.69;5018125;28;20041;-89
2021/10/07 06:56:38;;;;;;;5.50;2.60;;;;;;;5.89;90.61;91467.22;5018725;28;20506;-90
2021/10/07 06:59:05;;;;;;;4.07;2.22;;;;;;;5.74;89.86;91468.25;4985857;28;20060;-88
2021/10/07 07:01:30;;;;;;;4.05;2.30;;;;;;;5.71;90.29;91472.16;5001765;28;20029;-88
2021/10/07 07:03:56;;;;;;;4.25;2.45;;;;;;;5.95;89.85;91481.63;5017748;28;20029;-89
2021/10/07 07:06:22;;;;;;;5.10;2.75;;;;;;;5.90;89.48;91482.47;5016900;28;20037;-89
2021/10/07 07:08:47;;;;;;;4.72;2.67;;;;;;;5.79;89.83;91481.06;4989982;28;20059;-89
2021/10/07 07:11:14;;;;;;;3.92;2.70;;;;;;;5.88;89.28;91478.63;5029354;28;20093;-90
2021/10/07 07:13:40;;;;;;;6.18;3.20;;;;;;;5.91;89.43;91478.81;5049804;28;20105;-90
2021/10/07 07:16:05;;;;;;;5.78;3.20;;;;;;;5.83;88.20;91481.28;5029770;28;20486;-88
2021/10/07 07:18:31;;;;;;;3.97;2.92;;;;;;;5.90;88.47;91481.66;4984015;28;20029;-90
2021/10/07 07:20:56;;;;;;;3.30;2.58;;;;;;;6.16;88.15;91484.63;5017187;28;20021;-89
2021/10/07 07:23:22;;;;;;;3.72;2.75;;;;;;;6.25;87.85;91482.88;5000394;28;20077;-88
2021/10/07 07:25:47;;;;;;;6.50;2.50;;;;;;;6.15;87.28;91496.81;4999988;28;20025;-89
2021/10/07 07:28:13;;;;;;;5.70;2.53;;;;;;;5.97;87.67;91492.44;5000177;28;20431;-89
2021/10/07 07:30:38;;;;;;;3.45;2.53;;;;;;;6.14;88.05;91497.84;5033477;28;20032;-89
2021/10/07 07:33:04;;;;;;;3.17;2.15;;;;;;;6.42;86.96;91503.03;4999108;28;20380;-89
2021/10/07 07:35:31;;;;;;;3.13;2.40;;;;;;;6.56;87.17;91487.50;4983149;28;20029;-90
2021/10/07 07:37:57;;;;;;;7.97;2.40;;;;;;;6.58;85.45;91495.75;4999729;28;20026;-89
2021/10/07 07:40:23;;;;;;;5.63;2.42;;;;;;;6.39;85.78;91490.66;5000796;28;20026;-89
2021/10/07 07:42:48;;;;;;;5.20;1.73;;;;;;;6.51;85.25;91496.13;5000910;28;20432;-89
2021/10/07 07:45:14;;;;;;;3.42;2.00;;;;;;;6.46;86.36;91491.81;4986304;28;20048;-90
2021/10/07 07:47:41;;;;;;;2.30;1.52;;;;;;;6.57;85.16;91495.00;5019149;28;20021;-89
2021/10/07 07:50:08;;;;;;;1.55;1.17;;;;;;;6.63;82.42;91493.81;5019187;28;20483;-88
2021/10/07 07:52:34;;;;;;;1.63;1.20;;;;;;;6.64;82.96;91490.19;5019273;28;20482;-87
2021/10/07 07:54:59;;;;;;;0.90;0.80;;;;;;;6.92;80.57;91497.91;5018325;28;20029;-87
2021/10/07 07:57:25;;;;;;;2.15;0.85;;;;;;;6.97;79.84;91492.63;5034959;28;20023;-89
2021/10/07 07:59:50;;;;;;;1.30;0.90;;;;;;;6.87;78.62;91498.03;5018208;28;20017;-89
2021/10/07 08:02:15;;;;;;;2.45;1.00;;;;;;;6.95;79.14;91489.56;5018264;28;20411;-88
2021/10/07 08:04:42;;;;;;;2.33;0.95;;;;;;;7.01;79.13;91485.81;5034973;28;20029;-89
2021/10/07 08:07:07;;;;;;;2.13;0.80;;;;;;;7.09;79.30;91487.69;5018825;28;20028;-88
2021/10/07 08:09:34;;;;;;;2.05;0.60;;;;;;;7.03;76.55;91491.47;5018265;28;20024;-89
2021/10/07 08:11:59;;;;;;;0.90;0.50;;;;;;;6.86;76.42;91491.31;5018196;28;20033;-88
2021/10/07 08:14:25;;;;;;;1.83;0.75;;;;;;;6.95;77.66;91492.16;5018579;28;20079;-89
2021/10/07 08:16:50;;;;;;;0.98;0.40;;;;;;;6.81;76.52;91499.19;5034876;28;20104;-88
2021/10/07 08:19:16;;;;;;;1.35;0.50;;;;;;;6.83;74.75;91497.06;5035388;28;20032;-89
2021/10/07 08:21:42;;;;;;;0.93;0.60;;;;;;;6.90;75.74;91494.84;5034518;28;20029;-91
2021/10/07 08:24:10;;;;;;;1.52;0.50;;;;;;;7.07;76.20;91495.00;5035906;28;20114;-88
2021/10/07 08:26:35;;;;;;;1.90;0.60;;;;;;;6.94;79.27;91493.97;5035570;28;20032;-88
2021/10/07 08:29:01;;;;;;;1.40;0.50;;;;;;;6.97;75.95;91502.22;5018888;28;20025;-87
2021/10/07 08:31:26;;;;;;;2.05;0.55;;;;;;;6.98;73.58;91504.53;5039788;28;20029;-89
2021/10/07 08:33:52;;;;;;;1.70;0.60;;;;;;;7.04;75.01;91502.59;5039001;28;20427;-89
2021/10/07 08:36:17;;;;;;;1.27;0.50;;;;;;;7.18;76.16;91513.72;5042585;28;20025;-88
2021/10/07 08:38:43;;;;;;;0.60;0.40;;;;;;;7.45;76.36;91512.84;5072958;28;20067;-88
2021/10/07 08:41:08;;;;;;;1.60;0.75;;;;;;;7.38;78.42;91528.03;5049906;28;20021;-91
2021/10/07 08:43:34;;;;;;;1.30;0.80;;;;;;;7.47;80.09;91523.69;5069908;28;20031;-89
2021/10/07 08:46:05;;;;;;;2.25;1.23;;;;;;;7.36;78.28;91514.63;5023512;28;20048;-87
2021/10/07 08:48:31;;;;;;;2.20;0.80;;;;;;;7.44;78.95;91521.69;5022857;28;20028;-88
2021/10/07 08:50:56;;;;;;;2.38;0.90;;;;;;;7.59;77.91;91523.16;5022852;28;20021;-88
2021/10/07 08:53:22;;;;;;;1.48;0.80;;;;;;;7.61;77.89;91521.81;5057685;28;20029;-89
2021/10/07 08:55:47;;;;;;;3.47;0.90;;;;;;;7.62;77.60;91525.94;5040680;28;20033;-89
2021/10/07 08:58:12;;;;;;;3.70;0.80;;;;;;;7.80;77.94;91524.22;5057774;28;20437;-89
2021/10/07 09:00:38;;;;;;;1.23;0.77;;;;;;;7.87;77.71;91524.56;5040105;28;20467;-88
2021/10/07 09:03:22;;;;;;;1.50;0.82;;;;;;;7.93;78.48;91524.47;5023870;28;20036;-88
2021/10/07 09:05:48;;;;;;;2.10;1.13;;;;;;;7.81;76.86;91532.78;5056582;28;20386;-88
2021/10/07 09:08:15;;;;;;;2.33;0.70;;;;;;;7.83;75.92;91530.66;5040234;28;20024;-88
2021/10/07 09:10:40;;;;;;;2.65;0.80;;;;;;;8.09;76.89;91521.22;5023232;28;20376;-88
2021/10/07 09:13:08;;;;;;;2.30;1.08;;;;;;;8.06;78.20;91514.03;5041027;28;20051;-89
2021/10/07 09:15:34;;;;;;;1.75;0.70;;;;;;;7.94;77.75;91524.16;5039788;28;20021;-88
2021/10/07 09:18:04;;;;;;;1.35;0.77;;;;;;;8.06;77.53;91506.22;5023519;28;20021;-88
2021/10/07 09:20:38;;;;;;;2.55;0.80;;;;;;;8.21;77.20;91512.09;5056810;28;20024;-89
2021/10/07 09:23:11;;;;;;;3.00;0.65;;;;;;;8.50;76.90;91512.41;5040584;28;20025;-88
2021/10/07 09:25:57;;;;;;;2.45;0.63;;;;;;;8.55;77.33;91512.28;5023612;28;20113;-89
2021/10/07 09:28:23;;;;;;;2.10;0.90;;;;;;;8.77;76.88;91508.06;5023155;28;20033;-89
2021/10/07 09:30:56;;;;;;;1.02;0.60;;;;;;;8.66;75.18;91519.78;5023111;28;20028;-89
2021/10/07 09:33:30;;;;;;;1.73;0.50;;;;;;;8.79;75.75;91511.13;5039219;28;20028;-88
2021/10/07 09:36:12;;;;;;;2.08;0.52;;;;;;;8.64;72.22;91514.16;5038894;28;20017;-89
2021/10/07 09:38:37;;;;;;;0.70;0.47;;;;;;;8.28;72.62;91513.22;5039339;28;20502;-88
2021/10/07 09:41:10;;;;;;;0.88;0.40;;;;;;;8.52;73.31;91512.88;5022348;28;20025;-87
2021/10/07 09:43:55;;;;;;;0.80;0.40;;;;;;;8.75;70.91;91515.41;5022206;28;20028;-89
2021/10/07 09:46:52;;;;;;;0.60;0.47;;;;;;;8.71;73.27;91517.84;5039418;28;20025;-90
2021/10/07 09:49:19;;;;;;;2.55;0.50;;;;;;;8.55;72.26;91514.88;5039901;28;20071;-88
2021/10/07 09:51:48;;;;;;;0.88;0.60;;;;;;;8.48;73.34;91501.56;5039576;28;20035;-88
2021/10/07 09:54:24;;;;;;;0.90;0.50;;;;;;;8.26;73.41;91514.56;5056528;28;20513;-88
2021/10/07 09:56:57;;;;;;;1.90;0.43;;;;;;;8.21;73.50;91512.88;5025599;28;20478;-93
2021/10/07 09:59:23;;;;;;;1.00;0.32;;;;;;;8.45;74.39;91514.38;5017709;28;20114;-89
2021/10/07 10:01:48;;;;;;;1.30;0.40;;;;;;;8.48;73.31;91511.97;4986318;28;20091;-88
2021/10/07 10:04:14;;;;;;;0.80;0.38;;;;;;;8.54;73.03;91513.34;5001997;28;20480;-89
2021/10/07 10:06:40;;;;;;;0.60;0.38;;;;;;;8.25;72.00;91518.22;5001907;28;20060;-88
2021/10/07 10:09:06;;;;;;;2.33;0.47;;;;;;;8.47;73.33;91515.59;5004660;28;20028;-88
2021/10/07 10:11:31;;;;;;;1.35;0.47;;;;;;;8.67;74.23;91511.72;5023087;28;20028;-88
2021/10/07 10:13:57;;;;;;;1.23;0.40;;;;;;;8.53;73.41;91513.66;5023447;28;20029;-89
2021/10/07 10:16:22;;;;;;;1.13;0.38;;;;;;;8.68;74.29;91509.88;5023025;28;20016;-88
2021/10/07 10:18:56;;;;;;;1.92;0.60;;;;;;;8.94;75.87;91513.31;5023093;28;20108;-90
2021/10/07 10:21:22;;;;;;;1.55;0.50;;;;;;;9.02;76.48;91504.00;5021943;28;20479;-89
2021/10/07 10:23:47;;;;;;;0.90;0.30;;;;;;;9.18;72.78;91505.09;5022181;28;20040;-89
2021/10/07 10:26:13;;;;;;;1.45;0.50;;;;;;;9.02;70.61;91489.16;5022708;28;20029;-89
2021/10/07 10:28:38;;;;;;;0.77;0.47;;;;;;;8.97;72.39;91507.50;5022749;28;20033;-89
2021/10/07 10:31:05;;;;;;;0.85;0.40;;;;;;;8.98;70.13;91509.03;5055932;28;20536;-87
2021/10/07 10:33:32;;;;;;;1.77;0.55;;;;;;;8.76;70.33;91509.13;5021291;28;20029;-89
2021/10/07 10:35:58;;;;;;;0.98;0.40;;;;;;;8.75;68.97;91505.00;5021703;28;20025;-88
2021/10/07 10:38:23;;;;;;;0.47;0.40;;;;;;;8.93;69.20;91506.56;5038425;28;20466;-87
2021/10/07 10:40:48;;;;;;;0.35;0.20;;;;;;;8.83;64.13;91496.44;5055682;28;20029;-89
2021/10/07 10:43:17;;;;;;;0.60;0.30;;;;;;;9.06;62.37;91499.72;5021281;28;20025;-88
2021/10/07 10:45:46;;;;;;;0.77;0.20;;;;;;;9.04;64.34;91491.44;5038579;28;20033;-88
2021/10/07 10:48:12;;;;;;;4.50;0.40;;;;;;;8.98;64.25;91501.25;5037866;28;20474;-88
2021/10/07 10:50:37;;;;;;;0.85;0.40;;;;;;;9.29;66.77;91501.13;5041570;28;20036;-93
2021/10/07 10:53:04;;;;;;;0.68;0.30;;;;;;;9.30;62.82;91507.09;5043925;28;20025;-90
2021/10/07 10:55:29;;;;;;;2.22;0.57;;;;;;;9.29;66.14;91500.34;5028041;28;20034;-88
2021/10/07 10:58:03;;;;;;;1.10;0.30;;;;;;;9.15;66.01;91502.31;5017411;28;20087;-89
2021/10/07 11:00:32;;;;;;;1.02;0.40;;;;;;;9.58;68.67;91505.72;5034003;28;20018;-88
2021/10/07 11:03:19;;;;;;;1.48;0.32;;;;;;;9.75;67.67;91499.75;5017501;28;20399;-89
2021/10/07 11:05:56;;;;;;;1.30;0.40;;;;;;;9.85;68.25;91503.09;5035583;28;20036;-89
2021/10/07 11:08:22;;;;;;;0.90;0.40;;;;;;;9.95;68.65;91500.16;5035145;28;20067;-89
2021/10/07 11:10:49;;;;;;;0.73;0.40;;;;;;;9.74;65.96;91497.44;5034848;28;20105;-89
2021/10/07 11:13:22;;;;;;;0.38;0.30;;;;;;;9.65;66.89;91496.69;5002303;28;20454;-89
2021/10/07 11:15:49;;;;;;;1.85;0.30;;;;;;;9.87;67.52;91506.94;5018744;28;20084;-89
2021/10/07 11:18:14;;;;;;;2.03;0.40;;;;;;;9.35;69.78;91509.53;5018528;28;20376;-88
2021/10/07 11:20:40;;;;;;;0.82;0.40;;;;;;;9.26;71.78;91498.38;5018021;28;20091;-89
2021/10/07 11:23:12;;;;;;;1.13;0.47;;;;;;;9.40;69.79;91503.41;5034270;28;20083;-87
2021/10/07 11:25:57;;;;;;;1.10;0.65;;;;;;;9.50;70.57;91508.31;5033903;28;20028;-88
2021/10/07 11:28:33;;;;;;;2.03;0.85;;;;;;;9.29;70.63;91497.75;5016288;28;20030;-88
2021/10/07 11:31:05;;;;;;;2.58;0.90;;;;;;;9.09;71.85;91505.09;5016200;28;20029;-88
2021/10/07 11:33:31;;;;;;;1.38;1.02;;;;;;;9.04;72.69;91504.44;5033840;28;20099;-88
2021/10/07 11:36:00;;;;;;;2.47;1.30;;;;;;;8.97;72.97;91507.50;5017635;28;20029;-89
2021/10/07 11:38:26;;;;;;;3.08;1.15;;;;;;;9.42;73.23;91502.03;5017190;28;20444;-89
2021/10/07 11:40:52;;;;;;;2.28;1.25;;;;;;;9.34;71.55;91505.41;5017684;28;20036;-88
2021/10/07 11:43:23;;;;;;;1.63;1.02;;;;;;;9.39;72.08;91491.47;5016839;28;20514;-88